Terminal Aerodrome Forecast
Issued by NWS Cleveland, OH

Home | Current Version | Previous Version | Graphics & Text | Print | Product List | Glossary On
Versions: 1 2 3 4 5 6 7 8 9 10 11 12 13 14 15 16 17 18 19 20 21 22 23 24 25 26 27 28 29
000
FTUS41 KCLE 160800 AAA
TAFCLE
TAF AMD
KCLE 160855Z 1609/1712 14008KT P6SM BKN180 OVC250
     FM161200 16014KT P6SM SCT080 OVC120
     FM161700 18012KT 6SM -SHRA BKN060 OVC100
     FM162000 18010KT 6SM -SHRA OVC025
     FM162200 19008KT P6SM SCT008 OVC014=

USA.gov is the U.S. government's official web portal to all federal, state and local government web resources and services.